Time;durP1;ratioP1;P1;durP2;ratioP2;P2;SDS_P1;SDS_P2;PMS_P1;PMS_P2;Temp;Humidity;BMP_temperature;BMP_pressure;BME280_temperature;BME280_humidity;BME280_pressure;Samples;Min_cycle;Max_cycle;Signal;HPM_P1;HPM_P2
2023/02/07 07:29:04;;;;;;;15.37;6.10;;;;;;;-5.58;100.00;101086.84;5130859;27;20357;-78
2023/02/07 07:31:31;;;;;;;10.00;5.78;;;;;;;-5.63;100.00;101061.34;5129549;27;20063;-78
2023/02/07 07:33:58;;;;;;;9.97;5.53;;;;;;;-5.54;100.00;101050.50;5122714;27;20181;-78
2023/02/07 07:36:24;;;;;;;13.57;6.83;;;;;;;-5.40;100.00;101047.56;5128755;28;20130;-78
2023/02/07 07:38:51;;;;;;;12.27;6.47;;;;;;;-5.18;100.00;101050.53;5127808;27;20405;-79
2023/02/07 07:41:17;;;;;;;12.73;6.33;;;;;;;-5.01;100.00;101064.25;5128628;27;20047;-79
2023/02/07 07:43:44;;;;;;;13.30;5.87;;;;;;;-5.02;100.00;101054.53;5128599;27;20047;-79
2023/02/07 07:46:12;;;;;;;18.17;7.17;;;;;;;-5.01;100.00;101043.03;5131354;27;20067;-79
2023/02/07 07:48:39;;;;;;;13.97;6.67;;;;;;;-4.80;100.00;101068.13;5127883;27;20066;-80
2023/02/07 07:51:05;;;;;;;13.97;6.60;;;;;;;-4.90;100.00;101042.75;5126436;27;20409;-80
2023/02/07 07:53:34;;;;;;;11.63;5.73;;;;;;;-4.74;100.00;101056.50;5110413;27;20043;-79
2023/02/07 07:56:01;;;;;;;13.87;7.30;;;;;;;-4.58;98.55;101086.13;5136202;27;20051;-79
2023/02/07 07:58:28;;;;;;;13.37;6.27;;;;;;;-4.65;98.57;101068.66;5128408;27;20043;-80
2023/02/07 08:00:55;;;;;;;12.67;6.00;;;;;;;-4.60;98.06;101073.81;5119785;27;20048;-79
2023/02/07 08:03:23;;;;;;;11.63;6.60;;;;;;;-4.44;96.36;101072.50;5126028;27;20217;-79
2023/02/07 08:05:50;;;;;;;15.27;8.40;;;;;;;-4.25;96.24;101103.84;5128433;27;20139;-79
2023/02/07 08:08:18;;;;;;;10.40;6.27;;;;;;;-4.30;96.32;101086.25;5123174;27;20046;-79
2023/02/07 08:10:45;;;;;;;10.53;6.60;;;;;;;-4.09;93.92;101100.69;5123636;27;20063;-79
2023/02/07 08:13:12;;;;;;;11.07;6.47;;;;;;;-4.02;94.77;101088.13;5127707;27;20051;-79
2023/02/07 08:15:39;;;;;;;13.10;6.27;;;;;;;-3.92;94.92;101117.94;5128145;27;20067;-80
2023/02/07 08:18:06;;;;;;;12.47;6.53;;;;;;;-3.82;93.40;101122.06;5122713;27;20097;-80
2023/02/07 08:20:34;;;;;;;14.07;6.97;;;;;;;-3.95;92.97;101099.44;5127456;27;20050;-79
2023/02/07 08:23:01;;;;;;;15.37;7.23;;;;;;;-3.93;91.22;101119.75;5125182;27;20134;-80
2023/02/07 08:25:28;;;;;;;8.23;5.20;;;;;;;-3.82;90.40;101123.88;5127277;27;20039;-80
2023/02/07 08:27:54;;;;;;;9.50;5.40;;;;;;;-3.80;90.79;101137.97;5120163;27;20044;-79
2023/02/07 08:30:22;;;;;;;10.47;5.67;;;;;;;-3.62;91.39;101139.22;5107421;28;20046;-80
2023/02/07 08:32:50;;;;;;;11.83;6.57;;;;;;;-3.63;91.48;101133.03;5106685;28;20055;-79
2023/02/07 08:35:17;;;;;;;14.60;6.00;;;;;;;-3.74;89.42;101117.38;5110570;28;20534;-79
2023/02/07 08:37:45;;;;;;;11.30;6.23;;;;;;;-3.61;88.03;101117.91;5117735;27;20365;-80
2023/02/07 08:40:12;;;;;;;12.47;6.03;;;;;;;-3.60;88.81;101108.13;5105788;28;20055;-79
2023/02/07 08:42:39;;;;;;;27.93;12.23;;;;;;;-3.52;89.38;101100.81;5098211;28;20597;-80
2023/02/07 08:45:07;;;;;;;22.73;9.30;;;;;;;-3.39;90.21;101104.81;5111750;28;20044;-80
2023/02/07 08:47:33;;;;;;;11.77;6.27;;;;;;;-3.22;89.96;101114.06;5112118;28;20359;-80
2023/02/07 08:50:00;;;;;;;12.03;5.17;;;;;;;-3.25;88.17;101080.44;5109886;28;20436;-80
2023/02/07 08:52:26;;;;;;;8.17;5.57;;;;;;;-3.03;87.70;101109.88;5106848;28;20062;-80
2023/02/07 08:54:54;;;;;;;12.53;6.20;;;;;;;-2.93;88.50;101113.09;5113598;28;20058;-80
2023/02/07 08:57:23;;;;;;;12.20;6.87;;;;;;;-2.91;86.91;101115.69;5113624;28;20070;-80
2023/02/07 08:59:50;;;;;;;15.90;7.57;;;;;;;-2.77;85.94;101120.56;5111967;28;20055;-80
2023/02/07 09:02:16;;;;;;;14.73;6.70;;;;;;;-2.69;85.25;101119.38;5113040;28;20121;-80
2023/02/07 09:04:43;;;;;;;10.77;6.37;;;;;;;-2.84;87.05;101087.97;5103651;28;20488;-80
2023/02/07 09:07:10;;;;;;;10.30;6.00;;;;;;;-2.78;86.45;101093.06;5108404;28;20052;-80
2023/02/07 09:09:37;;;;;;;6.60;4.13;;;;;;;-2.73;85.99;101092.91;5103313;28;20044;-80
2023/02/07 09:12:05;;;;;;;15.10;7.20;;;;;;;-2.65;86.78;101104.16;5109091;28;20108;-80
2023/02/07 09:14:32;;;;;;;11.40;7.00;;;;;;;-2.48;87.44;101114.25;5113411;28;20080;-80
2023/02/07 09:16:58;;;;;;;15.27;7.00;;;;;;;-2.57;88.17;101082.63;5113373;28;20052;-79
2023/02/07 09:19:25;;;;;;;9.90;5.90;;;;;;;-2.45;86.82;101083.94;5113433;28;20040;-80
2023/02/07 09:21:52;;;;;;;5.05;3.78;;;;;;;-2.34;86.07;101084.44;5113100;28;20058;-80
2023/02/07 09:24:19;;;;;;;11.10;6.50;;;;;;;-2.27;87.25;101096.63;5104426;28;20514;-80
2023/02/07 09:26:46;;;;;;;10.32;5.82;;;;;;;-2.17;87.04;101090.03;5113658;28;20452;-80
2023/02/07 09:29:15;;;;;;;12.87;5.60;;;;;;;-2.06;84.60;101110.06;5103690;28;20048;-80
2023/02/07 09:31:42;;;;;;;9.05;5.50;;;;;;;-2.19;84.57;101091.03;5100294;28;20327;-80
2023/02/07 09:34:09;;;;;;;18.80;7.32;;;;;;;-2.23;85.41;101087.59;5108465;28;20062;-79
2023/02/07 09:36:36;;;;;;;12.50;6.72;;;;;;;-2.20;85.09;101078.59;5113025;28;20055;-80
2023/02/07 09:39:04;;;;;;;12.40;6.65;;;;;;;-2.05;84.07;101106.50;5112995;28;20060;-80
2023/02/07 09:41:39;;;;;;;12.10;7.13;;;;;;;-2.03;83.77;101097.53;5112815;28;20043;-80
2023/02/07 09:44:16;;;;;;;13.77;7.82;;;;;;;-2.00;83.35;101121.41;5109862;28;20387;-80
2023/02/07 09:46:50;;;;;;;9.23;5.93;;;;;;;-1.93;83.96;101106.03;5099283;28;20494;-80
2023/02/07 09:49:28;;;;;;;14.68;6.20;;;;;;;-2.02;83.74;101072.63;5100727;28;20062;-80
2023/02/07 09:51:57;;;;;;;11.68;5.82;;;;;;;-1.94;82.38;101093.66;5106171;28;20402;-80
2023/02/07 09:54:26;;;;;;;11.55;6.53;;;;;;;-1.97;83.17;101086.63;5112203;28;20108;-80
2023/02/07 09:56:56;;;;;;;17.65;6.93;;;;;;;-1.78;81.87;101093.91;5112271;28;20406;-80
2023/02/07 09:59:31;;;;;;;14.25;6.68;;;;;;;-1.85;81.71;101084.41;5106314;28;20055;-80
2023/02/07 10:02:04;;;;;;;11.52;6.57;;;;;;;-1.80;83.21;101099.31;5112243;28;20048;-80
2023/02/07 10:04:36;;;;;;;11.02;6.72;;;;;;;-1.83;82.63;101101.25;5098232;28;20054;-80
2023/02/07 10:07:06;;;;;;;10.02;6.35;;;;;;;-1.74;83.30;101106.22;5093885;28;20047;-80
2023/02/07 10:09:38;;;;;;;16.08;7.15;;;;;;;-1.57;84.77;101120.69;5104319;28;20394;-80
2023/02/07 10:12:17;;;;;;;12.98;7.50;;;;;;;-1.54;84.07;101115.25;5111922;28;20066;-80
2023/02/07 10:15:05;;;;;;;11.80;6.63;;;;;;;-1.47;82.33;101100.75;5103972;28;20402;-80
2023/02/07 10:17:54;;;;;;;12.48;6.70;;;;;;;-1.33;81.23;101130.41;5103460;28;20044;-80
2023/02/07 10:20:34;;;;;;;13.80;7.15;;;;;;;-1.34;80.87;101117.13;5099631;28;20491;-81
2023/02/07 10:23:12;;;;;;;13.00;5.70;;;;;;;-1.32;80.72;101112.63;5096574;28;20052;-80
2023/02/07 10:25:49;;;;;;;10.48;6.20;;;;;;;-1.23;80.00;101108.69;5106046;28;20036;-80
2023/02/07 10:28:44;;;;;;;10.35;6.78;;;;;;;-1.10;80.33;101123.28;5103282;28;20052;-80
2023/02/07 10:31:15;;;;;;;10.15;5.70;;;;;;;-1.15;80.02;101109.25;5108975;28;20051;-80
2023/02/07 10:33:48;;;;;;;11.55;7.07;;;;;;;-1.08;80.49;101124.97;5110924;28;20093;-80
2023/02/07 10:36:17;;;;;;;12.20;6.78;;;;;;;-0.98;79.03;101124.56;5111958;28;20054;-80
2023/02/07 10:38:52;;;;;;;12.63;7.47;;;;;;;-0.97;78.25;101116.50;5099683;28;20908;-80
2023/02/07 10:41:24;;;;;;;13.55;7.03;;;;;;;-0.84;78.16;101129.34;5102476;28;20576;-80
2023/02/07 10:43:51;;;;;;;11.95;7.65;;;;;;;-0.90;79.25;101101.13;5103600;28;20216;-80
2023/02/07 10:46:21;;;;;;;16.30;6.80;;;;;;;-0.76;76.33;101117.41;5111771;28;20059;-80
2023/02/07 10:48:48;;;;;;;10.90;6.63;;;;;;;-0.89;76.53;101097.50;5111295;28;20052;-80
2023/02/07 10:51:24;;;;;;;11.27;6.43;;;;;;;-0.57;78.62;101124.66;5111642;28;20048;-80
2023/02/07 10:54:02;;;;;;;15.63;6.22;;;;;;;-0.66;75.22;101112.56;5102922;28;20062;-80
2023/02/07 10:56:30;;;;;;;12.48;5.47;;;;;;;-0.59;73.48;101115.84;5109854;28;20403;-80
2023/02/07 10:58:58;;;;;;;16.13;6.22;;;;;;;-0.43;75.72;101124.94;5104884;28;20055;-80
2023/02/07 11:01:28;;;;;;;12.68;6.32;;;;;;;-0.41;74.19;101107.00;5111127;28;20063;-80
2023/02/07 11:03:55;;;;;;;;;;;;;;;-0.28;72.13;101123.41;5111063;28;20398;-80
2023/02/07 11:06:26;;;;;;;9.43;4.50;;;;;;;-0.44;72.49;101100.94;5111486;28;19919;-80
2023/02/07 11:09:11;;;;;;;10.55;5.57;;;;;;;-0.29;72.03;101116.31;5105304;28;20135;-80
2023/02/07 11:11:39;;;;;;;5.25;4.10;;;;;;;-0.19;69.90;101132.81;5091030;28;20127;-80
2023/02/07 11:14:08;;;;;;;9.18;4.75;;;;;;;-0.23;70.70;101104.47;5099375;28;20047;-80
2023/02/07 11:16:36;;;;;;;8.35;4.28;;;;;;;-0.03;69.23;101125.84;5102970;28;20047;-80
2023/02/07 11:19:05;;;;;;;7.10;4.10;;;;;;;-0.10;68.54;101099.47;5111367;28;20130;-80
2023/02/07 11:21:38;;;;;;;8.60;5.03;;;;;;;0.02;66.72;101124.78;5108239;28;20054;-80
2023/02/07 11:24:07;;;;;;;6.47;4.72;;;;;;;0.05;66.29;101113.94;5098896;28;20497;-80
2023/02/07 11:26:39;;;;;;;6.60;4.45;;;;;;;0.15;68.04;101107.22;5110843;28;20495;-80
2023/02/07 11:29:15;;;;;;;9.85;4.05;;;;;;;0.07;64.13;101082.66;5111094;28;20063;-81
2023/02/07 11:31:46;;;;;;;9.38;5.13;;;;;;;0.27;66.50;101113.81;5110657;28;20047;-80
2023/02/07 11:34:29;;;;;;;10.68;4.38;;;;;;;0.38;63.72;101119.53;5110354;28;20078;-81
2023/02/07 11:37:09;;;;;;;7.05;4.32;;;;;;;0.44;61.64;101127.28;5109068;28;20050;-80
2023/02/07 11:39:35;;;;;;;9.77;4.53;;;;;;;0.55;64.35;101112.53;5100531;28;20043;-81
2023/02/07 11:42:02;;;;;;;9.98;4.40;;;;;;;0.56;63.44;101106.22;5108240;28;20056;-80
2023/02/07 11:44:30;;;;;;;13.65;4.47;;;;;;;0.61;62.90;101101.53;5104492;28;20522;-80
2023/02/07 11:47:04;;;;;;;7.72;4.50;;;;;;;0.78;63.14;101106.91;5106108;28;20059;-81
2023/02/07 11:49:42;;;;;;;9.07;4.43;;;;;;;0.69;59.98;101092.19;5110601;28;20047;-81
2023/02/07 11:52:09;;;;;;;10.07;3.85;;;;;;;0.89;63.17;101106.41;5110275;28;20179;-80
2023/02/07 11:54:37;;;;;;;9.25;3.88;;;;;;;0.93;64.14;101088.38;5109985;28;20055;-80
2023/02/07 11:57:06;;;;;;;5.65;3.53;;;;;;;0.93;58.53;101081.19;5112288;28;20052;-80
2023/02/07 11:59:34;;;;;;;8.55;4.28;;;;;;;0.86;59.87;101066.41;5105133;28;20058;-81
2023/02/07 12:02:16;;;;;;;7.05;4.32;;;;;;;0.99;61.28;101070.19;5103467;28;20115;-81
2023/02/07 12:04:43;;;;;;;5.30;3.58;;;;;;;1.12;59.89;101085.66;5104184;28;20081;-80
2023/02/07 12:07:16;;;;;;;6.25;3.60;;;;;;;1.11;57.70;101067.84;5111061;28;20048;-81
2023/02/07 12:09:46;;;;;;;7.18;3.50;;;;;;;1.16;60.66;101063.09;5110934;28;20048;-81
2023/02/07 12:12:23;;;;;;;5.85;3.40;;;;;;;1.38;60.85;101069.09;5099798;28;20048;-81
2023/02/07 12:14:54;;;;;;;6.85;3.72;;;;;;;1.36;58.79;101068.31;5098072;28;20075;-81
2023/02/07 12:17:29;;;;;;;6.05;3.50;;;;;;;1.52;58.27;101067.53;5114592;28;20048;-82
2023/02/07 12:19:59;;;;;;;5.90;3.58;;;;;;;1.46;57.02;101060.69;5101903;28;20039;-81
2023/02/07 12:22:33;;;;;;;6.13;3.30;;;;;;;1.62;58.99;101063.41;5114133;28;20043;-80
2023/02/07 12:25:06;;;;;;;7.47;3.47;;;;;;;1.53;57.21;101026.38;5114885;28;20083;-81
2023/02/07 12:27:38;;;;;;;8.05;3.60;;;;;;;1.64;55.85;101040.09;5101891;27;20473;-80
2023/02/07 12:30:16;;;;;;;7.50;3.83;;;;;;;1.56;56.00;101028.88;5114546;28;20452;-80
2023/02/07 12:32:52;;;;;;;7.28;4.20;;;;;;;1.67;56.23;101021.16;5103025;28;20047;-80
2023/02/07 12:35:25;;;;;;;8.40;3.63;;;;;;;1.80;57.75;101039.25;5112329;28;20426;-81
2023/02/07 12:37:59;;;;;;;5.93;3.50;;;;;;;2.00;59.58;101055.13;5109097;28;20075;-81
2023/02/07 12:40:33;;;;;;;6.35;3.80;;;;;;;2.01;59.72;101040.78;5114612;28;20078;-81
2023/02/07 12:43:07;;;;;;;5.22;3.60;;;;;;;2.18;55.12;101050.56;5113533;28;20055;-81
2023/02/07 12:45:50;;;;;;;6.25;3.25;;;;;;;2.10;56.87;101039.41;5101552;28;20127;-81
2023/02/07 12:48:29;;;;;;;7.95;3.58;;;;;;;2.19;55.58;101030.84;5113910;28;20125;-80
2023/02/07 12:51:09;;;;;;;5.90;3.42;;;;;;;2.12;56.38;101013.34;5106080;28;20043;-81
2023/02/07 12:53:49;;;;;;;8.30;3.72;;;;;;;2.10;54.60;101023.31;5100237;28;20092;-81
2023/02/07 12:56:31;;;;;;;10.02;3.35;;;;;;;2.10;54.67;101021.47;5108340;28;20071;-81
2023/02/07 12:59:02;;;;;;;5.82;3.45;;;;;;;2.18;56.88;101025.56;5107263;28;20044;-81
2023/02/07 13:01:37;;;;;;;7.25;3.72;;;;;;;2.25;52.79;101033.19;5113589;27;20048;-81
2023/02/07 13:04:33;;;;;;;6.07;3.33;;;;;;;2.33;55.36;101039.94;5113090;28;20414;-81
2023/02/07 13:07:14;;;;;;;6.60;3.05;;;;;;;2.37;57.94;101041.50;5111898;28;20051;-81
2023/02/07 13:09:50;;;;;;;6.53;3.17;;;;;;;2.37;56.42;101030.78;5113505;28;20048;-81
2023/02/07 13:12:21;;;;;;;4.97;2.97;;;;;;;2.41;54.78;101035.00;5107914;28;20418;-81
2023/02/07 13:15:02;;;;;;;4.57;3.05;;;;;;;2.42;56.68;101034.91;5113252;28;20047;-81
2023/02/07 13:17:42;;;;;;;11.73;3.35;;;;;;;2.42;54.65;101007.22;5113340;28;20502;-81
2023/02/07 13:20:22;;;;;;;8.38;3.25;;;;;;;2.50;53.97;101026.44;5113405;28;20061;-81
2023/02/07 13:22:53;;;;;;;6.57;2.92;;;;;;;2.61;51.09;101028.50;5097291;28;20419;-81
2023/02/07 13:25:23;;;;;;;4.75;3.00;;;;;;;2.47;54.16;101008.69;5093636;28;20040;-81
2023/02/07 13:27:51;;;;;;;3.67;2.55;;;;;;;2.47;52.37;101015.88;5106813;28;20044;-81
2023/02/07 13:30:20;;;;;;;7.13;3.17;;;;;;;2.62;51.92;101025.72;5112861;28;20051;-81
2023/02/07 13:32:48;;;;;;;8.10;3.58;;;;;;;2.61;51.73;101029.38;5104892;28;20406;-81
2023/02/07 13:35:20;;;;;;;7.28;3.20;;;;;;;2.53;51.86;101004.78;5110403;28;20055;-82
2023/02/07 13:37:52;;;;;;;12.40;3.38;;;;;;;2.47;51.15;101018.56;5104948;28;20048;-81
2023/02/07 13:40:33;;;;;;;6.63;2.40;;;;;;;2.49;52.09;101008.59;5109614;28;20054;-81
2023/02/07 13:43:06;;;;;;;3.95;2.42;;;;;;;2.60;53.06;101030.31;5091972;28;20052;-81
2023/02/07 13:45:44;;;;;;;6.15;3.08;;;;;;;2.77;52.55;101039.22;5092083;28;20050;-81
2023/02/07 13:48:21;;;;;;;7.13;3.13;;;;;;;2.76;51.30;101024.06;5104959;28;20094;-81
2023/02/07 13:50:56;;;;;;;4.60;2.72;;;;;;;2.62;51.76;101014.09;5112611;28;20051;-81
2023/02/07 13:53:33;;;;;;;4.10;2.67;;;;;;;2.75;50.19;101039.31;5102675;28;20063;-81
2023/02/07 13:56:08;;;;;;;5.20;2.35;;;;;;;2.55;50.87;101002.00;5103313;28;20052;-81
2023/02/07 14:01:49;;;;;;;5.43;3.35;;;;;;;2.87;49.94;101026.13;5092195;28;20162;-81
2023/02/07 14:04:16;;;;;;;5.72;3.08;;;;;;;2.86;52.57;101017.22;5091468;28;20051;-81
2023/02/07 14:06:55;;;;;;;4.18;3.08;;;;;;;2.93;54.52;101021.25;5096751;28;20074;-81
2023/02/07 14:09:28;;;;;;;6.45;3.05;;;;;;;2.90;52.79;101007.16;5111236;28;20047;-81
2023/02/07 14:11:58;;;;;;;8.00;2.80;;;;;;;2.98;55.03;101024.56;5105581;28;20047;-82
2023/02/07 14:14:26;;;;;;;6.93;2.85;;;;;;;3.03;53.36;101018.91;5107165;28;20055;-81
2023/02/07 14:16:56;;;;;;;3.92;2.47;;;;;;;2.88;52.35;100993.81;5092005;28;20067;-81
2023/02/07 14:19:49;;;;;;;3.63;2.42;;;;;;;3.12;51.20;101020.19;5091933;28;20138;-81
2023/02/07 14:22:20;;;;;;;4.65;2.70;;;;;;;3.06;53.25;101007.13;5098665;28;20060;-81
2023/02/07 14:25:12;;;;;;;4.47;3.08;;;;;;;3.08;53.63;101018.63;5112046;28;20047;-81
2023/02/07 14:27:41;;;;;;;6.85;3.53;;;;;;;2.97;51.17;101013.91;5108312;28;20457;-81
2023/02/07 14:30:20;;;;;;;6.07;2.90;;;;;;;3.04;52.43;101019.75;5108758;28;20063;-81
2023/02/07 14:33:15;;;;;;;5.78;2.50;;;;;;;2.91;53.00;101015.13;5111249;28;20138;-81
2023/02/07 14:36:03;;;;;;;3.75;2.75;;;;;;;2.83;52.03;101006.63;5105204;28;20043;-81
2023/02/07 14:38:35;;;;;;;9.75;3.65;;;;;;;3.06;51.66;101013.34;5102548;28;20047;-81
2023/02/07 14:41:07;;;;;;;4.07;2.70;;;;;;;3.15;51.29;101017.31;5111751;28;20039;-81
2023/02/07 14:43:53;;;;;;;3.97;2.50;;;;;;;3.13;48.84;101008.44;5101426;28;20054;-81
2023/02/07 14:46:28;;;;;;;4.70;2.75;;;;;;;3.16;48.10;101011.84;5102557;28;20055;-81
2023/02/07 14:49:00;;;;;;;5.35;2.83;;;;;;;3.22;48.04;101028.53;5108953;28;20403;-81
2023/02/07 14:51:38;;;;;;;6.70;3.17;;;;;;;3.11;48.31;101021.97;5105514;28;20063;-81
2023/02/07 14:54:14;;;;;;;5.22;2.35;;;;;;;3.02;48.32;101030.59;5101203;28;20063;-81
2023/02/07 14:56:47;;;;;;;4.57;2.10;;;;;;;2.92;46.73;101034.78;5104216;28;20079;-81
2023/02/07 14:59:23;;;;;;;3.70;2.15;;;;;;;2.85;48.60;101028.06;5109364;28;20499;-81
2023/02/07 15:01:49;;;;;;;4.05;2.20;;;;;;;2.61;46.68;101012.41;5111204;28;20422;-81
2023/02/07 15:04:16;;;;;;;3.67;2.42;;;;;;;2.62;46.99;101017.69;5110933;28;20266;-81
2023/02/07 15:06:44;;;;;;;3.88;2.38;;;;;;;2.85;49.82;101042.34;5111101;28;20061;-81
2023/02/07 15:09:20;;;;;;;6.82;2.53;;;;;;;2.78;47.32;101039.13;5107723;28;20513;-81
2023/02/07 15:11:48;;;;;;;3.47;2.13;;;;;;;2.47;45.63;101019.41;5103109;28;20052;-81
2023/02/07 15:14:27;;;;;;;4.40;2.35;;;;;;;2.44;46.47;101024.09;5108415;28;20050;-81
2023/02/07 15:16:54;;;;;;;3.30;2.33;;;;;;;2.46;45.83;101024.88;5111065;28;20413;-81
2023/02/07 15:19:31;;;;;;;7.68;2.55;;;;;;;2.37;46.58;101010.16;5111309;28;20047;-81
2023/02/07 15:21:57;;;;;;;4.15;2.30;;;;;;;2.35;46.27;101021.91;5106939;28;20056;-81
2023/02/07 15:24:29;;;;;;;4.40;2.30;;;;;;;2.31;47.35;101007.81;5109140;28;20406;-81
2023/02/07 15:26:58;;;;;;;3.97;2.38;;;;;;;2.31;49.09;101018.56;5097960;28;20050;-81
2023/02/07 15:29:28;;;;;;;4.20;2.03;;;;;;;2.30;49.52;101055.28;5109924;28;20066;-81
2023/02/07 15:31:57;;;;;;;19.75;8.52;;;;;;;2.30;48.62;101054.38;5099615;28;20050;-80
2023/02/07 15:34:30;;;;;;;6.50;3.00;;;;;;;2.20;48.70;101050.47;5091934;28;20047;-82
2023/02/07 15:36:58;;;;;;;5.43;2.72;;;;;;;1.98;49.11;101018.63;5107653;28;20054;-81
2023/02/07 15:39:29;;;;;;;5.80;2.22;;;;;;;2.08;47.80;101063.63;5109507;28;20059;-82
2023/02/07 15:41:57;;;;;;;5.82;2.88;;;;;;;1.85;50.12;101037.19;5093460;28;20118;-81
2023/02/07 15:44:28;;;;;;;8.23;2.50;;;;;;;1.73;49.92;101033.34;5109977;28;20482;-82
2023/02/07 15:46:57;;;;;;;3.58;2.60;;;;;;;1.80;50.46;101050.84;5103595;28;20052;-82
2023/02/07 15:49:32;;;;;;;5.35;2.65;;;;;;;1.56;50.82;101026.22;5110650;28;20044;-82
2023/02/07 15:52:12;;;;;;;5.43;2.33;;;;;;;1.52;50.91;101040.72;5104527;28;20046;-81
2023/02/07 15:54:43;;;;;;;;;;;;;;;1.55;50.10;101057.53;5107744;28;20411;-82
2023/02/07 15:57:15;;;;;;;5.75;2.55;;;;;;;1.33;51.46;101033.66;5111439;28;20413;-81
2023/02/07 15:59:42;;;;;;;5.28;2.42;;;;;;;1.30;53.21;101054.38;5108469;27;20050;-82
2023/02/07 16:02:21;;;;;;;5.07;1.98;;;;;;;1.13;51.32;101061.47;5106229;28;20475;-81
2023/02/07 16:04:48;;;;;;;3.85;2.45;;;;;;;1.06;51.06;101074.28;5101873;27;20043;-81
2023/02/07 16:07:16;;;;;;;4.03;2.40;;;;;;;1.00;51.40;101066.56;5112302;28;20050;-82
2023/02/07 16:09:46;;;;;;;4.40;2.50;;;;;;;0.90;51.72;101067.09;5105412;28;20505;-82
2023/02/07 16:12:31;;;;;;;3.22;2.03;;;;;;;0.83;51.22;101080.81;5097867;28;20064;-81
2023/02/07 16:14:59;;;;;;;10.07;2.70;;;;;;;0.65;51.85;101074.53;5113003;27;20487;-81
2023/02/07 16:17:38;;;;;;;5.63;2.33;;;;;;;0.53;50.70;101077.81;5111993;27;20053;-81
2023/02/07 16:20:05;;;;;;;4.38;2.40;;;;;;;0.46;52.14;101074.53;5099854;28;20057;-81
2023/02/07 16:22:32;;;;;;;8.90;2.80;;;;;;;0.44;52.04;101086.28;5099894;28;20050;-81
2023/02/07 16:25:02;;;;;;;2.22;2.00;;;;;;;0.29;50.46;101080.69;5108317;28;20122;-82
2023/02/07 16:27:30;;;;;;;;;;;;;;;0.45;50.88;101106.72;5110736;28;20047;-81
2023/02/07 16:29:59;;;;;;;6.82;2.47;;;;;;;0.14;53.10;101076.06;5112485;28;19969;-82
2023/02/07 16:32:30;;;;;;;3.80;2.20;;;;;;;0.29;51.28;101102.09;5106713;28;20051;-81
2023/02/07 16:34:57;;;;;;;3.53;2.55;;;;;;;0.16;51.39;101090.25;5108355;28;20074;-82
2023/02/07 16:37:23;;;;;;;4.93;2.63;;;;;;;-0.06;53.19;101071.63;5111980;28;20073;-81
2023/02/07 16:39:50;;;;;;;5.10;2.20;;;;;;;0.00;53.31;101111.47;5103893;28;20056;-81
2023/02/07 16:42:18;;;;;;;2.95;2.08;;;;;;;-0.05;53.07;101108.13;5105760;28;20060;-81
2023/02/07 16:44:47;;;;;;;5.22;2.63;;;;;;;-0.24;53.41;101078.66;5105387;27;20094;-82
2023/02/07 16:47:17;;;;;;;4.22;2.55;;;;;;;-0.24;54.22;101108.06;5112862;28;20128;-81
2023/02/07 16:49:45;;;;;;;5.35;2.97;;;;;;;-0.46;55.82;101084.97;5114926;28;20062;-81
2023/02/07 16:52:12;;;;;;;9.13;2.80;;;;;;;-0.54;56.14;101084.47;5111339;28;20052;-81
2023/02/07 16:54:38;;;;;;;5.03;2.40;;;;;;;-0.68;58.11;101100.19;5113189;28;20048;-81
2023/02/07 16:57:05;;;;;;;20.42;4.35;;;;;;;-0.83;58.11;101089.22;5113573;28;20059;-81
2023/02/07 16:59:33;;;;;;;10.45;3.83;;;;;;;-0.90;59.39;101095.78;5110410;28;20044;-81
2023/02/07 17:01:59;;;;;;;6.03;2.55;;;;;;;-1.10;60.72;101081.44;5111899;28;20537;-81
2023/02/07 17:04:26;;;;;;;3.70;2.35;;;;;;;-1.09;61.71;101101.84;5112940;28;20058;-81
2023/02/07 17:06:52;;;;;;;6.82;2.55;;;;;;;-1.32;60.73;101088.59;5098907;27;20063;-81
2023/02/07 17:09:21;;;;;;;4.03;2.60;;;;;;;-1.45;61.40;101062.38;5118844;27;20213;-81
2023/02/07 17:11:47;;;;;;;9.50;3.28;;;;;;;-1.40;62.03;101101.34;5111835;28;20047;-81
2023/02/07 17:14:14;;;;;;;8.25;2.97;;;;;;;-1.56;62.38;101103.78;5094595;28;20052;-81
2023/02/07 17:16:42;;;;;;;5.72;2.40;;;;;;;-1.64;63.37;101102.28;5109634;28;20544;-81
2023/02/07 17:19:13;;;;;;;9.07;3.45;;;;;;;-1.91;66.51;101076.66;5104969;28;20051;-81
2023/02/07 17:21:41;;;;;;;12.65;3.40;;;;;;;-1.82;66.18;101108.31;5110562;28;20491;-80
2023/02/07 17:24:08;;;;;;;7.18;3.35;;;;;;;-2.02;68.43;101085.06;5110935;28;20051;-80
2023/02/07 17:26:36;;;;;;;6.47;2.60;;;;;;;-2.09;67.69;101091.53;5110934;28;20084;-81
2023/02/07 17:29:02;;;;;;;4.97;3.35;;;;;;;-1.94;67.34;101127.41;5109550;28;20052;-80
2023/02/07 17:31:30;;;;;;;3.83;2.83;;;;;;;-1.99;67.50;101103.59;5110397;28;20048;-80
2023/02/07 17:33:59;;;;;;;6.65;3.17;;;;;;;-2.20;68.97;101100.81;5110679;28;20078;-80
2023/02/07 17:36:27;;;;;;;6.90;3.20;;;;;;;-2.16;69.55;101107.75;5101050;28;20487;-80
2023/02/07 17:38:54;;;;;;;5.82;3.70;;;;;;;-2.10;70.25;101109.31;5110955;28;20051;-80
2023/02/07 17:41:20;;;;;;;6.20;3.53;;;;;;;-2.22;70.60;101086.66;5110753;28;20410;-80
2023/02/07 17:43:47;;;;;;;9.52;3.40;;;;;;;-1.95;71.44;101139.88;5100674;28;20309;-80
2023/02/07 17:46:17;;;;;;;10.77;3.78;;;;;;;-2.15;70.14;101111.31;5108263;28;20422;-80
2023/02/07 17:48:45;;;;;;;;;;;;;;;-2.03;71.31;101133.94;5111432;27;20059;-80
2023/02/07 17:51:13;;;;;;;8.77;4.35;;;;;;;-2.08;70.99;101122.59;5110497;28;19973;-81
2023/02/07 17:53:41;;;;;;;8.23;4.15;;;;;;;-2.04;71.32;101138.41;5107762;28;20079;-80
2023/02/07 17:56:09;;;;;;;7.88;3.72;;;;;;;-2.32;74.15;101111.91;5108540;28;20051;-81
2023/02/07 17:58:36;;;;;;;8.02;3.88;;;;;;;-2.34;76.05;101125.28;5102100;28;20050;-80
2023/02/07 18:01:04;;;;;;;14.05;4.47;;;;;;;-2.29;76.75;101140.22;5110070;28;20047;-80
2023/02/07 18:03:31;;;;;;;7.40;4.13;;;;;;;-2.38;77.26;101141.41;5104803;28;20051;-80
2023/02/07 18:05:57;;;;;;;6.35;3.97;;;;;;;-2.35;77.72;101155.53;5109843;28;20401;-80
2023/02/07 18:08:25;;;;;;;9.63;4.75;;;;;;;-2.48;76.18;101108.91;5110465;28;20050;-81
2023/02/07 18:10:52;;;;;;;7.68;3.90;;;;;;;-2.40;76.82;101138.81;5109853;28;20040;-81
2023/02/07 18:13:19;;;;;;;12.55;5.78;;;;;;;-2.39;77.97;101113.91;5108378;28;20051;-81
2023/02/07 18:15:46;;;;;;;9.07;4.55;;;;;;;-2.61;77.41;101102.28;5109706;27;20494;-81
2023/02/07 18:18:14;;;;;;;9.85;4.80;;;;;;;-2.62;78.07;101116.50;5109787;28;20089;-81
2023/02/07 18:20:40;;;;;;;11.88;5.38;;;;;;;-2.60;80.24;101142.16;5102709;28;20048;-81
2023/02/07 18:23:07;;;;;;;16.83;5.10;;;;;;;-2.64;80.10;101135.19;5106657;28;20050;-81
2023/02/07 18:25:35;;;;;;;7.93;4.40;;;;;;;-2.77;82.33;101120.56;5108049;28;20047;-81
2023/02/07 18:28:01;;;;;;;6.80;4.40;;;;;;;-2.97;83.94;101105.25;5104062;28;20055;-81
2023/02/07 18:30:28;;;;;;;8.85;4.57;;;;;;;-3.02;83.26;101100.97;5109209;28;20066;-81
2023/02/07 18:32:55;;;;;;;7.55;4.88;;;;;;;-2.82;83.71;101128.69;5103040;27;20490;-80
2023/02/07 18:35:22;;;;;;;10.20;4.93;;;;;;;-2.79;84.33;101143.72;5108143;28;20061;-80
2023/02/07 18:37:48;;;;;;;9.95;5.22;;;;;;;-2.85;83.20;101127.00;5109696;28;20123;-81
2023/02/07 18:40:15;;;;;;;11.77;5.50;;;;;;;-3.03;83.74;101117.88;5107983;28;20052;-81
2023/02/07 18:42:43;;;;;;;10.38;6.72;;;;;;;-3.00;83.47;101134.66;5108941;28;20439;-80
2023/02/07 18:45:12;;;;;;;13.25;6.35;;;;;;;-3.07;85.29;101137.50;5106379;28;20047;-80
